sensor_id;sensor_type;location;lat;lon;timestamp;temperature;humidity
4366;DHT22;2196;47.422;9.656;2022-11-27T00:00:03;2.10;99.90
4366;DHT22;2196;47.422;9.656;2022-11-27T00:02:31;2.00;99.90
4366;DHT22;2196;47.422;9.656;2022-11-27T00:05:00;1.90;99.90
4366;DHT22;2196;47.422;9.656;2022-11-27T00:07:27;1.80;99.90
4366;DHT22;2196;47.422;9.656;2022-11-27T00:09:54;1.70;99.90
4366;DHT22;2196;47.422;9.656;2022-11-27T00:12:21;1.60;99.90
4366;DHT22;2196;47.422;9.656;2022-11-27T00:14:48;1.60;99.90
4366;DHT22;2196;47.422;9.656;2022-11-27T00:17:15;1.50;99.90
4366;DHT22;2196;47.422;9.656;2022-11-27T00:19:42;1.50;99.90
4366;DHT22;2196;47.422;9.656;2022-11-27T00:22:10;1.50;99.90
4366;DHT22;2196;47.422;9.656;2022-11-27T00:24:38;1.40;99.90
4366;DHT22;2196;47.422;9.656;2022-11-27T00:27:05;1.50;99.90
4366;DHT22;2196;47.422;9.656;2022-11-27T00:29:35;1.40;99.90
4366;DHT22;2196;47.422;9.656;2022-11-27T00:32:03;1.50;99.90
4366;DHT22;2196;47.422;9.656;2022-11-27T00:34:34;1.40;99.90
4366;DHT22;2196;47.422;9.656;2022-11-27T00:37:01;1.40;99.90
4366;DHT22;2196;47.422;9.656;2022-11-27T00:39:30;1.40;99.90
4366;DHT22;2196;47.422;9.656;2022-11-27T00:41:57;1.40;99.90
4366;DHT22;2196;47.422;9.656;2022-11-27T00:44:24;1.40;99.90
4366;DHT22;2196;47.422;9.656;2022-11-27T00:46:51;1.40;99.90
4366;DHT22;2196;47.422;9.656;2022-11-27T00:49:18;1.30;99.90
4366;DHT22;2196;47.422;9.656;2022-11-27T00:51:45;1.30;99.90
4366;DHT22;2196;47.422;9.656;2022-11-27T00:54:12;1.30;99.90
4366;DHT22;2196;47.422;9.656;2022-11-27T00:56:40;1.30;99.90
4366;DHT22;2196;47.422;9.656;2022-11-27T00:59:09;1.30;99.90
4366;DHT22;2196;47.422;9.656;2022-11-27T01:01:39;1.30;99.90
4366;DHT22;2196;47.422;9.656;2022-11-27T01:04:09;1.30;99.90
4366;DHT22;2196;47.422;9.656;2022-11-27T01:06:37;1.30;99.90
4366;DHT22;2196;47.422;9.656;2022-11-27T01:09:04;1.30;99.90
4366;DHT22;2196;47.422;9.656;2022-11-27T01:11:33;1.30;99.90
4366;DHT22;2196;47.422;9.656;2022-11-27T01:14:04;1.30;99.90
4366;DHT22;2196;47.422;9.656;2022-11-27T01:19:53;1.30;99.90
4366;DHT22;2196;47.422;9.656;2022-11-27T01:22:20;1.30;99.90
4366;DHT22;2196;47.422;9.656;2022-11-27T01:24:47;1.20;99.90
4366;DHT22;2196;47.422;9.656;2022-11-27T01:27:14;1.30;99.90
4366;DHT22;2196;47.422;9.656;2022-11-27T01:29:42;1.40;99.90
4366;DHT22;2196;47.422;9.656;2022-11-27T01:32:10;1.40;99.90
4366;DHT22;2196;47.422;9.656;2022-11-27T01:34:37;1.40;99.90
4366;DHT22;2196;47.422;9.656;2022-11-27T01:37:04;1.40;99.90
4366;DHT22;2196;47.422;9.656;2022-11-27T01:39:32;1.40;99.90
4366;DHT22;2196;47.422;9.656;2022-11-27T01:41:59;1.40;99.90
4366;DHT22;2196;47.422;9.656;2022-11-27T01:44:51;1.40;99.90
4366;DHT22;2196;47.422;9.656;2022-11-27T01:47:28;1.40;99.90
4366;DHT22;2196;47.422;9.656;2022-11-27T01:50:02;1.40;99.90
4366;DHT22;2196;47.422;9.656;2022-11-27T01:52:33;1.30;99.90
4366;DHT22;2196;47.422;9.656;2022-11-27T01:55:04;1.30;99.90
4366;DHT22;2196;47.422;9.656;2022-11-27T01:57:35;1.40;99.90
4366;DHT22;2196;47.422;9.656;2022-11-27T02:00:10;1.40;99.90
4366;DHT22;2196;47.422;9.656;2022-11-27T02:02:39;1.40;99.90
4366;DHT22;2196;47.422;9.656;2022-11-27T02:05:06;1.40;99.90
4366;DHT22;2196;47.422;9.656;2022-11-27T02:07:34;1.30;99.90
4366;DHT22;2196;47.422;9.656;2022-11-27T02:10:02;1.30;99.90
4366;DHT22;2196;47.422;9.656;2022-11-27T02:12:34;1.30;99.90
4366;DHT22;2196;47.422;9.656;2022-11-27T02:15:10;1.30;99.90
4366;DHT22;2196;47.422;9.656;2022-11-27T02:17:43;1.20;99.90
4366;DHT22;2196;47.422;9.656;2022-11-27T02:20:22;1.20;99.90
4366;DHT22;2196;47.422;9.656;2022-11-27T02:23:08;1.20;99.90
4366;DHT22;2196;47.422;9.656;2022-11-27T02:25:46;1.10;99.90
4366;DHT22;2196;47.422;9.656;2022-11-27T02:28:28;1.10;99.90
4366;DHT22;2196;47.422;9.656;2022-11-27T02:31:04;1.00;99.90
4366;DHT22;2196;47.422;9.656;2022-11-27T02:33:34;1.00;99.90
4366;DHT22;2196;47.422;9.656;2022-11-27T02:36:08;1.10;99.90
4366;DHT22;2196;47.422;9.656;2022-11-27T02:38:38;1.10;99.90
4366;DHT22;2196;47.422;9.656;2022-11-27T02:41:11;1.10;99.90
4366;DHT22;2196;47.422;9.656;2022-11-27T02:43:41;1.10;99.90
4366;DHT22;2196;47.422;9.656;2022-11-27T02:46:13;1.00;99.90
4366;DHT22;2196;47.422;9.656;2022-11-27T02:48:44;0.90;99.90
4366;DHT22;2196;47.422;9.656;2022-11-27T02:51:14;0.90;99.90
4366;DHT22;2196;47.422;9.656;2022-11-27T02:53:46;0.90;99.90
4366;DHT22;2196;47.422;9.656;2022-11-27T02:56:17;0.90;99.90
4366;DHT22;2196;47.422;9.656;2022-11-27T02:58:47;0.90;99.90
4366;DHT22;2196;47.422;9.656;2022-11-27T03:01:17;0.90;99.90
4366;DHT22;2196;47.422;9.656;2022-11-27T03:03:48;0.80;99.90
4366;DHT22;2196;47.422;9.656;2022-11-27T03:06:19;0.80;99.90
4366;DHT22;2196;47.422;9.656;2022-11-27T03:08:50;0.80;99.90
4366;DHT22;2196;47.422;9.656;2022-11-27T03:11:20;0.90;99.90
4366;DHT22;2196;47.422;9.656;2022-11-27T03:13:50;0.90;99.90
4366;DHT22;2196;47.422;9.656;2022-11-27T03:16:25;1.00;99.90
4366;DHT22;2196;47.422;9.656;2022-11-27T03:18:57;1.10;99.90
4366;DHT22;2196;47.422;9.656;2022-11-27T03:21:33;1.20;99.90
4366;DHT22;2196;47.422;9.656;2022-11-27T03:24:03;1.20;99.90
4366;DHT22;2196;47.422;9.656;2022-11-27T03:26:30;1.20;99.90
4366;DHT22;2196;47.422;9.656;2022-11-27T03:28:59;1.30;99.90
4366;DHT22;2196;47.422;9.656;2022-11-27T03:31:29;1.30;99.90
4366;DHT22;2196;47.422;9.656;2022-11-27T03:33:57;1.20;99.90
4366;DHT22;2196;47.422;9.656;2022-11-27T03:36:24;1.00;99.90
4366;DHT22;2196;47.422;9.656;2022-11-27T03:38:52;1.00;99.90
4366;DHT22;2196;47.422;9.656;2022-11-27T03:41:25;1.10;99.90
4366;DHT22;2196;47.422;9.656;2022-11-27T03:44:01;1.10;99.90
4366;DHT22;2196;47.422;9.656;2022-11-27T03:46:41;1.00;99.90
4366;DHT22;2196;47.422;9.656;2022-11-27T03:49:18;1.00;99.90
4366;DHT22;2196;47.422;9.656;2022-11-27T03:51:51;0.90;99.90
4366;DHT22;2196;47.422;9.656;2022-11-27T03:54:30;0.90;99.90
4366;DHT22;2196;47.422;9.656;2022-11-27T03:57:01;0.90;99.90
4366;DHT22;2196;47.422;9.656;2022-11-27T03:59:36;0.90;99.90
4366;DHT22;2196;47.422;9.656;2022-11-27T04:02:11;0.90;99.90
4366;DHT22;2196;47.422;9.656;2022-11-27T04:04:38;0.80;99.90
4366;DHT22;2196;47.422;9.656;2022-11-27T04:07:05;0.70;99.90
4366;DHT22;2196;47.422;9.656;2022-11-27T04:09:32;0.70;99.90
4366;DHT22;2196;47.422;9.656;2022-11-27T04:11:59;0.70;99.90
4366;DHT22;2196;47.422;9.656;2022-11-27T04:14:26;0.70;99.90
4366;DHT22;2196;47.422;9.656;2022-11-27T04:16:53;0.70;99.90
4366;DHT22;2196;47.422;9.656;2022-11-27T04:19:21;0.70;99.90
4366;DHT22;2196;47.422;9.656;2022-11-27T04:21:48;0.60;99.90
4366;DHT22;2196;47.422;9.656;2022-11-27T04:24:15;0.60;99.90
4366;DHT22;2196;47.422;9.656;2022-11-27T04:26:42;0.50;99.90
4366;DHT22;2196;47.422;9.656;2022-11-27T04:29:09;0.50;99.90
4366;DHT22;2196;47.422;9.656;2022-11-27T04:31:36;0.50;99.90
4366;DHT22;2196;47.422;9.656;2022-11-27T04:34:03;0.50;99.90
4366;DHT22;2196;47.422;9.656;2022-11-27T04:38:59;0.50;99.90
4366;DHT22;2196;47.422;9.656;2022-11-27T04:41:26;0.50;99.90
4366;DHT22;2196;47.422;9.656;2022-11-27T04:43:53;0.50;99.90
4366;DHT22;2196;47.422;9.656;2022-11-27T04:46:21;0.50;99.90
4366;DHT22;2196;47.422;9.656;2022-11-27T04:48:48;0.40;99.90
4366;DHT22;2196;47.422;9.656;2022-11-27T04:51:15;0.40;99.90
4366;DHT22;2196;47.422;9.656;2022-11-27T04:53:43;0.40;99.90
4366;DHT22;2196;47.422;9.656;2022-11-27T04:56:10;0.50;99.90
4366;DHT22;2196;47.422;9.656;2022-11-27T04:58:37;0.40;99.90
4366;DHT22;2196;47.422;9.656;2022-11-27T05:01:04;0.50;99.90
4366;DHT22;2196;47.422;9.656;2022-11-27T05:03:31;0.40;99.90
4366;DHT22;2196;47.422;9.656;2022-11-27T05:05:58;0.40;99.90
4366;DHT22;2196;47.422;9.656;2022-11-27T05:08:27;0.30;99.90
4366;DHT22;2196;47.422;9.656;2022-11-27T05:11:00;0.30;99.90
4366;DHT22;2196;47.422;9.656;2022-11-27T05:13:27;0.30;99.90
4366;DHT22;2196;47.422;9.656;2022-11-27T05:15:55;0.20;99.90
4366;DHT22;2196;47.422;9.656;2022-11-27T05:18:22;0.20;99.90
4366;DHT22;2196;47.422;9.656;2022-11-27T05:20:55;0.20;99.90
4366;DHT22;2196;47.422;9.656;2022-11-27T05:23:23;0.20;99.90
4366;DHT22;2196;47.422;9.656;2022-11-27T05:25:50;0.20;99.90
4366;DHT22;2196;47.422;9.656;2022-11-27T05:28:20;0.20;99.90
4366;DHT22;2196;47.422;9.656;2022-11-27T05:30:47;0.10;99.90
4366;DHT22;2196;47.422;9.656;2022-11-27T05:33:15;0.10;99.90
4366;DHT22;2196;47.422;9.656;2022-11-27T05:35:42;0.10;99.90
4366;DHT22;2196;47.422;9.656;2022-11-27T05:38:10;0.10;99.90
4366;DHT22;2196;47.422;9.656;2022-11-27T05:40:37;0.10;99.90
4366;DHT22;2196;47.422;9.656;2022-11-27T05:43:04;0.10;99.90
4366;DHT22;2196;47.422;9.656;2022-11-27T05:45:33;0.10;99.90
4366;DHT22;2196;47.422;9.656;2022-11-27T05:48:00;0.10;99.90
4366;DHT22;2196;47.422;9.656;2022-11-27T05:50:27;0.10;99.90
4366;DHT22;2196;47.422;9.656;2022-11-27T05:52:54;0.10;99.90
4366;DHT22;2196;47.422;9.656;2022-11-27T05:55:21;0.10;99.90
4366;DHT22;2196;47.422;9.656;2022-11-27T05:57:48;0.20;99.90
4366;DHT22;2196;47.422;9.656;2022-11-27T06:00:15;0.10;99.90
4366;DHT22;2196;47.422;9.656;2022-11-27T06:02:44;0.10;99.90
4366;DHT22;2196;47.422;9.656;2022-11-27T06:05:11;0.10;99.90
4366;DHT22;2196;47.422;9.656;2022-11-27T06:07:39;0.20;99.90
4366;DHT22;2196;47.422;9.656;2022-11-27T06:10:07;0.20;99.90
4366;DHT22;2196;47.422;9.656;2022-11-27T06:12:35;0.10;99.90
4366;DHT22;2196;47.422;9.656;2022-11-27T06:15:03;0.20;99.90
4366;DHT22;2196;47.422;9.656;2022-11-27T06:17:30;0.10;99.90
4366;DHT22;2196;47.422;9.656;2022-11-27T06:19:58;0.20;99.90
4366;DHT22;2196;47.422;9.656;2022-11-27T06:22:25;0.20;99.90
4366;DHT22;2196;47.422;9.656;2022-11-27T06:24:53;0.20;99.90
4366;DHT22;2196;47.422;9.656;2022-11-27T06:27:20;0.20;99.90
4366;DHT22;2196;47.422;9.656;2022-11-27T06:29:47;0.10;99.90
4366;DHT22;2196;47.422;9.656;2022-11-27T06:32:14;0.10;99.90
4366;DHT22;2196;47.422;9.656;2022-11-27T06:34:41;0.00;99.90
4366;DHT22;2196;47.422;9.656;2022-11-27T06:37:09;0.00;99.90
4366;DHT22;2196;47.422;9.656;2022-11-27T06:39:37;0.00;99.90
4366;DHT22;2196;47.422;9.656;2022-11-27T06:42:04;0.00;99.90
4366;DHT22;2196;47.422;9.656;2022-11-27T06:44:31;0.10;99.90
4366;DHT22;2196;47.422;9.656;2022-11-27T06:46:59;0.10;99.90
4366;DHT22;2196;47.422;9.656;2022-11-27T06:49:26;0.10;99.90
4366;DHT22;2196;47.422;9.656;2022-11-27T06:51:53;0.10;99.90
4366;DHT22;2196;47.422;9.656;2022-11-27T06:54:22;0.00;99.90
4366;DHT22;2196;47.422;9.656;2022-11-27T06:56:49;0.00;99.90
4366;DHT22;2196;47.422;9.656;2022-11-27T06:59:17;0.00;99.90
4366;DHT22;2196;47.422;9.656;2022-11-27T07:01:44;0.00;99.90
4366;DHT22;2196;47.422;9.656;2022-11-27T07:04:13;0.00;99.90
4366;DHT22;2196;47.422;9.656;2022-11-27T07:06:41;0.00;99.90
4366;DHT22;2196;47.422;9.656;2022-11-27T07:09:08;-0.10;99.90
4366;DHT22;2196;47.422;9.656;2022-11-27T07:11:37;-0.10;99.90
4366;DHT22;2196;47.422;9.656;2022-11-27T07:14:05;-0.10;99.90
4366;DHT22;2196;47.422;9.656;2022-11-27T07:16:34;-0.10;99.90
4366;DHT22;2196;47.422;9.656;2022-11-27T07:19:03;-0.10;99.90
4366;DHT22;2196;47.422;9.656;2022-11-27T07:21:31;0.00;99.90
4366;DHT22;2196;47.422;9.656;2022-11-27T07:23:59;0.00;99.90
4366;DHT22;2196;47.422;9.656;2022-11-27T07:26:28;0.00;99.90
4366;DHT22;2196;47.422;9.656;2022-11-27T07:28:57;0.00;99.90
4366;DHT22;2196;47.422;9.656;2022-11-27T07:31:25;0.10;99.90
4366;DHT22;2196;47.422;9.656;2022-11-27T07:33:53;0.20;99.90
4366;DHT22;2196;47.422;9.656;2022-11-27T07:36:23;0.20;99.90
4366;DHT22;2196;47.422;9.656;2022-11-27T07:38:50;0.30;99.90
4366;DHT22;2196;47.422;9.656;2022-11-27T07:41:17;0.40;99.90
4366;DHT22;2196;47.422;9.656;2022-11-27T07:43:45;0.50;99.90
4366;DHT22;2196;47.422;9.656;2022-11-27T07:46:15;0.60;99.90
4366;DHT22;2196;47.422;9.656;2022-11-27T07:48:43;0.70;99.90
4366;DHT22;2196;47.422;9.656;2022-11-27T07:51:13;0.70;99.90
4366;DHT22;2196;47.422;9.656;2022-11-27T07:53:40;0.80;99.90
4366;DHT22;2196;47.422;9.656;2022-11-27T07:56:09;0.90;99.90
4366;DHT22;2196;47.422;9.656;2022-11-27T07:58:36;0.90;99.90
4366;DHT22;2196;47.422;9.656;2022-11-27T08:01:06;0.90;99.90
4366;DHT22;2196;47.422;9.656;2022-11-27T08:03:35;1.00;99.90
4366;DHT22;2196;47.422;9.656;2022-11-27T08:06:03;0.90;99.90
4366;DHT22;2196;47.422;9.656;2022-11-27T08:08:30;1.00;99.90
4366;DHT22;2196;47.422;9.656;2022-11-27T08:10:58;1.00;99.90
4366;DHT22;2196;47.422;9.656;2022-11-27T08:13:25;1.00;99.90
4366;DHT22;2196;47.422;9.656;2022-11-27T08:15:52;1.00;99.90
4366;DHT22;2196;47.422;9.656;2022-11-27T08:18:19;1.10;99.90
4366;DHT22;2196;47.422;9.656;2022-11-27T08:20:47;1.10;99.90
4366;DHT22;2196;47.422;9.656;2022-11-27T08:23:15;1.20;99.90
4366;DHT22;2196;47.422;9.656;2022-11-27T08:25:42;1.40;99.90
4366;DHT22;2196;47.422;9.656;2022-11-27T08:28:09;1.60;99.90
4366;DHT22;2196;47.422;9.656;2022-11-27T08:30:37;1.80;99.90
4366;DHT22;2196;47.422;9.656;2022-11-27T08:33:04;2.10;99.90
4366;DHT22;2196;47.422;9.656;2022-11-27T08:35:31;2.40;99.90
4366;DHT22;2196;47.422;9.656;2022-11-27T08:37:59;2.80;99.90
4366;DHT22;2196;47.422;9.656;2022-11-27T08:40:26;3.20;99.90
4366;DHT22;2196;47.422;9.656;2022-11-27T08:42:53;3.60;99.90
4366;DHT22;2196;47.422;9.656;2022-11-27T08:45:20;4.10;99.90
4366;DHT22;2196;47.422;9.656;2022-11-27T08:47:47;4.50;99.90
4366;DHT22;2196;47.422;9.656;2022-11-27T08:50:14;4.70;99.90
4366;DHT22;2196;47.422;9.656;2022-11-27T08:52:41;4.80;99.90
4366;DHT22;2196;47.422;9.656;2022-11-27T08:55:10;4.90;99.90
4366;DHT22;2196;47.422;9.656;2022-11-27T08:57:37;5.10;99.90
4366;DHT22;2196;47.422;9.656;2022-11-27T09:00:06;5.40;99.90
4366;DHT22;2196;47.422;9.656;2022-11-27T09:02:33;5.90;99.90
4366;DHT22;2196;47.422;9.656;2022-11-27T09:05:04;6.30;99.90
4366;DHT22;2196;47.422;9.656;2022-11-27T09:07:32;6.70;99.90
4366;DHT22;2196;47.422;9.656;2022-11-27T09:09:59;6.90;99.90
4366;DHT22;2196;47.422;9.656;2022-11-27T09:12:27;6.90;99.90
4366;DHT22;2196;47.422;9.656;2022-11-27T09:14:54;6.90;99.90
4366;DHT22;2196;47.422;9.656;2022-11-27T09:17:21;6.90;99.90
4366;DHT22;2196;47.422;9.656;2022-11-27T09:19:48;7.10;99.90
4366;DHT22;2196;47.422;9.656;2022-11-27T09:22:15;7.10;99.90
4366;DHT22;2196;47.422;9.656;2022-11-27T09:24:42;7.20;99.90
4366;DHT22;2196;47.422;9.656;2022-11-27T09:27:09;7.00;99.90
4366;DHT22;2196;47.422;9.656;2022-11-27T09:29:38;7.00;99.90
4366;DHT22;2196;47.422;9.656;2022-11-27T09:32:05;7.10;99.90
4366;DHT22;2196;47.422;9.656;2022-11-27T09:34:33;7.30;99.90
4366;DHT22;2196;47.422;9.656;2022-11-27T09:37:00;7.30;99.90
4366;DHT22;2196;47.422;9.656;2022-11-27T09:39:28;7.40;99.90
4366;DHT22;2196;47.422;9.656;2022-11-27T09:42:00;7.10;99.90
4366;DHT22;2196;47.422;9.656;2022-11-27T09:44:32;7.30;99.90
4366;DHT22;2196;47.422;9.656;2022-11-27T09:47:13;7.30;99.90
4366;DHT22;2196;47.422;9.656;2022-11-27T09:49:44;7.20;99.90
4366;DHT22;2196;47.422;9.656;2022-11-27T09:52:19;7.00;99.90
4366;DHT22;2196;47.422;9.656;2022-11-27T09:54:52;6.80;99.90
4366;DHT22;2196;47.422;9.656;2022-11-27T09:57:26;6.90;99.90
4366;DHT22;2196;47.422;9.656;2022-11-27T09:59:55;6.70;99.90
4366;DHT22;2196;47.422;9.656;2022-11-27T10:02:28;6.90;99.90
4366;DHT22;2196;47.422;9.656;2022-11-27T10:04:55;7.20;99.90
4366;DHT22;2196;47.422;9.656;2022-11-27T10:07:31;7.30;99.90
4366;DHT22;2196;47.422;9.656;2022-11-27T10:10:09;7.80;99.90
4366;DHT22;2196;47.422;9.656;2022-11-27T10:12:45;8.30;99.90
4366;DHT22;2196;47.422;9.656;2022-11-27T10:15:20;8.90;99.90
4366;DHT22;2196;47.422;9.656;2022-11-27T10:17:59;9.40;99.90
4366;DHT22;2196;47.422;9.656;2022-11-27T10:20:33;9.40;99.90
4366;DHT22;2196;47.422;9.656;2022-11-27T10:23:04;9.30;99.90
4366;DHT22;2196;47.422;9.656;2022-11-27T10:25:38;9.10;99.90
4366;DHT22;2196;47.422;9.656;2022-11-27T10:28:15;8.70;99.90
4366;DHT22;2196;47.422;9.656;2022-11-27T10:30:50;8.20;99.90
4366;DHT22;2196;47.422;9.656;2022-11-27T10:33:24;7.80;99.90
4366;DHT22;2196;47.422;9.656;2022-11-27T10:35:53;7.40;99.90
4366;DHT22;2196;47.422;9.656;2022-11-27T10:38:22;7.00;99.90
4366;DHT22;2196;47.422;9.656;2022-11-27T10:40:54;7.00;99.90
4366;DHT22;2196;47.422;9.656;2022-11-27T10:43:27;6.90;99.90
4366;DHT22;2196;47.422;9.656;2022-11-27T10:45:58;6.90;99.90
4366;DHT22;2196;47.422;9.656;2022-11-27T10:48:28;6.90;99.90
4366;DHT22;2196;47.422;9.656;2022-11-27T10:50:55;6.80;99.90
4366;DHT22;2196;47.422;9.656;2022-11-27T10:53:25;7.00;99.90
4366;DHT22;2196;47.422;9.656;2022-11-27T10:56:12;7.10;99.90
4366;DHT22;2196;47.422;9.656;2022-11-27T10:58:50;7.10;99.90
4366;DHT22;2196;47.422;9.656;2022-11-27T11:01:19;7.20;99.90
4366;DHT22;2196;47.422;9.656;2022-11-27T11:03:48;7.20;99.90
4366;DHT22;2196;47.422;9.656;2022-11-27T11:06:19;7.30;99.90
4366;DHT22;2196;47.422;9.656;2022-11-27T11:08:47;7.20;99.90
4366;DHT22;2196;47.422;9.656;2022-11-27T11:11:24;7.30;99.90
4366;DHT22;2196;47.422;9.656;2022-11-27T11:13:51;7.30;99.90
4366;DHT22;2196;47.422;9.656;2022-11-27T11:16:21;7.30;99.90
4366;DHT22;2196;47.422;9.656;2022-11-27T11:18:51;7.10;99.90
4366;DHT22;2196;47.422;9.656;2022-11-27T11:21:23;7.00;99.90
4366;DHT22;2196;47.422;9.656;2022-11-27T11:23:57;7.10;99.90
4366;DHT22;2196;47.422;9.656;2022-11-27T11:26:28;7.10;99.90
4366;DHT22;2196;47.422;9.656;2022-11-27T11:28:58;7.00;99.90
4366;DHT22;2196;47.422;9.656;2022-11-27T11:31:31;6.80;99.90
4366;DHT22;2196;47.422;9.656;2022-11-27T11:34:02;6.90;99.90
4366;DHT22;2196;47.422;9.656;2022-11-27T11:36:31;6.90;99.90
4366;DHT22;2196;47.422;9.656;2022-11-27T11:38:58;6.90;99.90
4366;DHT22;2196;47.422;9.656;2022-11-27T11:41:35;6.90;99.90
4366;DHT22;2196;47.422;9.656;2022-11-27T11:44:03;6.90;99.90
4366;DHT22;2196;47.422;9.656;2022-11-27T11:46:32;6.80;99.90
4366;DHT22;2196;47.422;9.656;2022-11-27T11:49:05;6.80;99.90
4366;DHT22;2196;47.422;9.656;2022-11-27T11:51:51;6.80;99.90
4366;DHT22;2196;47.422;9.656;2022-11-27T11:54:35;6.70;99.90
4366;DHT22;2196;47.422;9.656;2022-11-27T11:57:10;6.60;99.90
4366;DHT22;2196;47.422;9.656;2022-11-27T11:59:51;6.50;99.90
4366;DHT22;2196;47.422;9.656;2022-11-27T12:02:35;6.60;99.90
4366;DHT22;2196;47.422;9.656;2022-11-27T12:05:22;6.80;99.90
4366;DHT22;2196;47.422;9.656;2022-11-27T12:08:13;6.90;99.90
4366;DHT22;2196;47.422;9.656;2022-11-27T12:10:54;7.10;99.90
4366;DHT22;2196;47.422;9.656;2022-11-27T12:13:38;7.00;99.90
4366;DHT22;2196;47.422;9.656;2022-11-27T12:16:13;7.10;99.90
4366;DHT22;2196;47.422;9.656;2022-11-27T12:18:51;7.10;99.90
4366;DHT22;2196;47.422;9.656;2022-11-27T12:21:29;7.20;99.90
4366;DHT22;2196;47.422;9.656;2022-11-27T12:24:14;7.20;99.90
4366;DHT22;2196;47.422;9.656;2022-11-27T12:26:55;7.10;99.90
4366;DHT22;2196;47.422;9.656;2022-11-27T12:35:33;6.80;99.90
4366;DHT22;2196;47.422;9.656;2022-11-27T12:38:18;6.80;99.90
4366;DHT22;2196;47.422;9.656;2022-11-27T12:41:01;6.70;99.90
4366;DHT22;2196;47.422;9.656;2022-11-27T12:43:35;6.60;99.90
4366;DHT22;2196;47.422;9.656;2022-11-27T12:46:10;6.60;99.90
4366;DHT22;2196;47.422;9.656;2022-11-27T12:48:42;6.50;99.90
4366;DHT22;2196;47.422;9.656;2022-11-27T12:51:17;6.50;99.90
4366;DHT22;2196;47.422;9.656;2022-11-27T12:53:53;6.40;99.90
4366;DHT22;2196;47.422;9.656;2022-11-27T12:56:25;6.40;99.90
4366;DHT22;2196;47.422;9.656;2022-11-27T12:59:02;6.40;99.90
4366;DHT22;2196;47.422;9.656;2022-11-27T13:01:35;6.40;99.90
4366;DHT22;2196;47.422;9.656;2022-11-27T13:04:16;6.30;99.90
4366;DHT22;2196;47.422;9.656;2022-11-27T13:06:53;6.30;99.90
4366;DHT22;2196;47.422;9.656;2022-11-27T13:09:28;6.20;99.90
4366;DHT22;2196;47.422;9.656;2022-11-27T13:11:56;6.20;99.90
4366;DHT22;2196;47.422;9.656;2022-11-27T13:14:25;6.10;99.90
4366;DHT22;2196;47.422;9.656;2022-11-27T13:16:55;6.00;99.90
4366;DHT22;2196;47.422;9.656;2022-11-27T13:19:27;6.00;99.90
4366;DHT22;2196;47.422;9.656;2022-11-27T13:21:59;6.00;99.90
4366;DHT22;2196;47.422;9.656;2022-11-27T13:24:34;6.00;99.90
4366;DHT22;2196;47.422;9.656;2022-11-27T13:27:05;6.00;99.90
4366;DHT22;2196;47.422;9.656;2022-11-27T13:29:38;6.20;99.90
4366;DHT22;2196;47.422;9.656;2022-11-27T13:32:08;6.30;99.90
4366;DHT22;2196;47.422;9.656;2022-11-27T13:34:44;6.20;99.90
4366;DHT22;2196;47.422;9.656;2022-11-27T13:37:27;6.20;99.90
4366;DHT22;2196;47.422;9.656;2022-11-27T13:40:02;6.20;99.90
4366;DHT22;2196;47.422;9.656;2022-11-27T13:42:30;6.30;99.90
4366;DHT22;2196;47.422;9.656;2022-11-27T13:45:00;6.50;99.90
4366;DHT22;2196;47.422;9.656;2022-11-27T13:47:29;6.60;99.90
4366;DHT22;2196;47.422;9.656;2022-11-27T13:50:04;6.60;99.90
4366;DHT22;2196;47.422;9.656;2022-11-27T13:52:32;6.50;99.90
4366;DHT22;2196;47.422;9.656;2022-11-27T13:55:02;6.40;99.90
4366;DHT22;2196;47.422;9.656;2022-11-27T13:57:31;6.30;99.90
4366;DHT22;2196;47.422;9.656;2022-11-27T14:00:02;6.20;99.90
4366;DHT22;2196;47.422;9.656;2022-11-27T14:02:41;6.20;99.90
4366;DHT22;2196;47.422;9.656;2022-11-27T14:05:09;6.10;99.90
4366;DHT22;2196;47.422;9.656;2022-11-27T14:07:38;6.10;99.90
4366;DHT22;2196;47.422;9.656;2022-11-27T14:10:12;6.10;99.90
4366;DHT22;2196;47.422;9.656;2022-11-27T14:12:40;6.10;99.90
4366;DHT22;2196;47.422;9.656;2022-11-27T14:15:20;6.20;99.90
4366;DHT22;2196;47.422;9.656;2022-11-27T14:17:49;6.20;99.90
4366;DHT22;2196;47.422;9.656;2022-11-27T14:20:23;6.20;99.90
4366;DHT22;2196;47.422;9.656;2022-11-27T14:22:52;6.20;99.90
4366;DHT22;2196;47.422;9.656;2022-11-27T14:25:24;6.20;99.90
4366;DHT22;2196;47.422;9.656;2022-11-27T14:27:59;6.20;99.90
4366;DHT22;2196;47.422;9.656;2022-11-27T14:30:32;6.10;99.90
4366;DHT22;2196;47.422;9.656;2022-11-27T14:33:02;6.10;99.90
4366;DHT22;2196;47.422;9.656;2022-11-27T14:35:29;6.10;99.90
4366;DHT22;2196;47.422;9.656;2022-11-27T14:38:12;6.10;99.90
4366;DHT22;2196;47.422;9.656;2022-11-27T14:40:41;6.10;99.90
4366;DHT22;2196;47.422;9.656;2022-11-27T14:43:14;6.10;99.90
4366;DHT22;2196;47.422;9.656;2022-11-27T14:45:44;6.10;99.90
4366;DHT22;2196;47.422;9.656;2022-11-27T14:48:18;6.00;99.90
4366;DHT22;2196;47.422;9.656;2022-11-27T14:50:46;5.90;99.90
4366;DHT22;2196;47.422;9.656;2022-11-27T14:53:14;5.90;99.90
4366;DHT22;2196;47.422;9.656;2022-11-27T14:55:43;5.80;99.90
4366;DHT22;2196;47.422;9.656;2022-11-27T14:58:16;5.70;99.90
4366;DHT22;2196;47.422;9.656;2022-11-27T15:00:51;5.70;99.90
4366;DHT22;2196;47.422;9.656;2022-11-27T15:03:18;5.60;99.90
4366;DHT22;2196;47.422;9.656;2022-11-27T15:05:52;5.50;99.90
4366;DHT22;2196;47.422;9.656;2022-11-27T15:08:20;5.50;99.90
4366;DHT22;2196;47.422;9.656;2022-11-27T15:10:51;5.40;99.90
4366;DHT22;2196;47.422;9.656;2022-11-27T15:13:22;5.40;99.90
4366;DHT22;2196;47.422;9.656;2022-11-27T15:16:00;5.30;99.90
4366;DHT22;2196;47.422;9.656;2022-11-27T15:18:28;5.20;99.90
4366;DHT22;2196;47.422;9.656;2022-11-27T15:20:57;5.10;99.90
4366;DHT22;2196;47.422;9.656;2022-11-27T15:23:26;5.00;99.90
4366;DHT22;2196;47.422;9.656;2022-11-27T15:26:07;5.00;99.90
4366;DHT22;2196;47.422;9.656;2022-11-27T15:28:38;4.90;99.90
4366;DHT22;2196;47.422;9.656;2022-11-27T15:31:22;4.90;99.90
4366;DHT22;2196;47.422;9.656;2022-11-27T15:34:01;4.90;99.90
4366;DHT22;2196;47.422;9.656;2022-11-27T15:36:34;4.80;99.90
4366;DHT22;2196;47.422;9.656;2022-11-27T15:39:14;4.80;99.90
4366;DHT22;2196;47.422;9.656;2022-11-27T15:41:51;4.70;99.90
4366;DHT22;2196;47.422;9.656;2022-11-27T15:44:20;4.70;99.90
4366;DHT22;2196;47.422;9.656;2022-11-27T15:46:48;4.70;99.90
4366;DHT22;2196;47.422;9.656;2022-11-27T15:49:15;4.70;99.90
4366;DHT22;2196;47.422;9.656;2022-11-27T15:51:44;4.70;99.90
4366;DHT22;2196;47.422;9.656;2022-11-27T15:54:11;4.70;99.90
4366;DHT22;2196;47.422;9.656;2022-11-27T15:56:38;4.70;99.90
4366;DHT22;2196;47.422;9.656;2022-11-27T15:59:07;4.70;99.90
4366;DHT22;2196;47.422;9.656;2022-11-27T16:01:36;4.70;99.90
4366;DHT22;2196;47.422;9.656;2022-11-27T16:04:03;4.60;99.90
4366;DHT22;2196;47.422;9.656;2022-11-27T16:06:30;4.60;99.90
4366;DHT22;2196;47.422;9.656;2022-11-27T16:08:59;4.50;99.90
4366;DHT22;2196;47.422;9.656;2022-11-27T16:11:28;4.50;99.90
4366;DHT22;2196;47.422;9.656;2022-11-27T16:13:55;4.50;99.90
4366;DHT22;2196;47.422;9.656;2022-11-27T16:16:24;4.40;99.90
4366;DHT22;2196;47.422;9.656;2022-11-27T16:18:55;4.40;99.90
4366;DHT22;2196;47.422;9.656;2022-11-27T16:21:24;4.40;99.90
4366;DHT22;2196;47.422;9.656;2022-11-27T16:23:54;4.40;99.90
4366;DHT22;2196;47.422;9.656;2022-11-27T16:26:22;4.40;99.90
4366;DHT22;2196;47.422;9.656;2022-11-27T16:28:48;4.40;99.90
4366;DHT22;2196;47.422;9.656;2022-11-27T16:31:16;4.50;99.90
4366;DHT22;2196;47.422;9.656;2022-11-27T16:33:44;4.60;99.90
4366;DHT22;2196;47.422;9.656;2022-11-27T16:36:13;4.60;99.90
4366;DHT22;2196;47.422;9.656;2022-11-27T16:38:41;4.60;99.90
4366;DHT22;2196;47.422;9.656;2022-11-27T16:41:10;4.60;99.90
4366;DHT22;2196;47.422;9.656;2022-11-27T16:43:40;4.60;99.90
4366;DHT22;2196;47.422;9.656;2022-11-27T16:46:09;4.50;99.90
4366;DHT22;2196;47.422;9.656;2022-11-27T16:48:37;4.50;99.90